sensor_id;sensor_type;location;lat;lon;timestamp;P1;durP1;ratioP1;P2;durP2;ratioP2
31347;SDS011;21711;49.708;18.568;2023-04-25T00:01:17;12.95;;;6.97;;
31347;SDS011;21711;49.708;18.568;2023-04-25T00:03:45;12.80;;;6.78;;
31347;SDS011;21711;49.708;18.568;2023-04-25T00:06:13;11.98;;;6.30;;
31347;SDS011;21711;49.708;18.568;2023-04-25T00:08:40;13.43;;;7.15;;
31347;SDS011;21711;49.708;18.568;2023-04-25T00:11:08;15.82;;;8.68;;
31347;SDS011;21711;49.708;18.568;2023-04-25T00:13:35;17.45;;;8.93;;
31347;SDS011;21711;49.708;18.568;2023-04-25T00:16:02;17.67;;;9.20;;
31347;SDS011;21711;49.708;18.568;2023-04-25T00:18:30;18.33;;;9.88;;
31347;SDS011;21711;49.708;18.568;2023-04-25T00:20:59;15.57;;;9.05;;
31347;SDS011;21711;49.708;18.568;2023-04-25T00:23:26;26.83;;;9.93;;
31347;SDS011;21711;49.708;18.568;2023-04-25T00:25:54;19.73;;;9.98;;
31347;SDS011;21711;49.708;18.568;2023-04-25T00:28:21;21.40;;;11.07;;
31347;SDS011;21711;49.708;18.568;2023-04-25T00:30:48;16.42;;;8.93;;
31347;SDS011;21711;49.708;18.568;2023-04-25T00:33:16;19.50;;;10.23;;
31347;SDS011;21711;49.708;18.568;2023-04-25T00:35:43;20.67;;;8.82;;
31347;SDS011;21711;49.708;18.568;2023-04-25T00:38:11;15.60;;;9.27;;
31347;SDS011;21711;49.708;18.568;2023-04-25T00:40:38;14.25;;;8.18;;
31347;SDS011;21711;49.708;18.568;2023-04-25T00:43:05;15.05;;;8.88;;
31347;SDS011;21711;49.708;18.568;2023-04-25T00:45:33;14.02;;;7.75;;
31347;SDS011;21711;49.708;18.568;2023-04-25T00:48:04;16.30;;;8.52;;
31347;SDS011;21711;49.708;18.568;2023-04-25T00:50:35;17.73;;;8.63;;
31347;SDS011;21711;49.708;18.568;2023-04-25T00:53:03;13.60;;;7.85;;
31347;SDS011;21711;49.708;18.568;2023-04-25T00:55:31;17.65;;;7.47;;
31347;SDS011;21711;49.708;18.568;2023-04-25T00:58:01;13.07;;;8.15;;
31347;SDS011;21711;49.708;18.568;2023-04-25T01:00:28;14.07;;;7.00;;
31347;SDS011;21711;49.708;18.568;2023-04-25T01:02:56;13.20;;;7.75;;
31347;SDS011;21711;49.708;18.568;2023-04-25T01:05:25;13.13;;;8.10;;
31347;SDS011;21711;49.708;18.568;2023-04-25T01:07:52;14.82;;;8.15;;
31347;SDS011;21711;49.708;18.568;2023-04-25T01:10:20;13.10;;;7.80;;
31347;SDS011;21711;49.708;18.568;2023-04-25T01:12:47;11.98;;;7.05;;
31347;SDS011;21711;49.708;18.568;2023-04-25T01:15:15;11.50;;;7.22;;
31347;SDS011;21711;49.708;18.568;2023-04-25T01:17:42;12.20;;;7.28;;
31347;SDS011;21711;49.708;18.568;2023-04-25T01:20:10;11.65;;;7.60;;
31347;SDS011;21711;49.708;18.568;2023-04-25T01:22:38;12.35;;;6.50;;
31347;SDS011;21711;49.708;18.568;2023-04-25T01:25:06;10.85;;;6.18;;
31347;SDS011;21711;49.708;18.568;2023-04-25T01:27:35;13.38;;;7.18;;
31347;SDS011;21711;49.708;18.568;2023-04-25T01:30:04;11.43;;;6.03;;
31347;SDS011;21711;49.708;18.568;2023-04-25T01:32:33;11.23;;;6.40;;
31347;SDS011;21711;49.708;18.568;2023-04-25T01:35:06;10.38;;;6.65;;
31347;SDS011;21711;49.708;18.568;2023-04-25T01:37:42;12.57;;;6.32;;
31347;SDS011;21711;49.708;18.568;2023-04-25T01:40:11;10.73;;;6.80;;
31347;SDS011;21711;49.708;18.568;2023-04-25T01:42:40;10.82;;;6.28;;
31347;SDS011;21711;49.708;18.568;2023-04-25T01:45:11;10.18;;;6.68;;
31347;SDS011;21711;49.708;18.568;2023-04-25T01:47:39;10.13;;;6.63;;
31347;SDS011;21711;49.708;18.568;2023-04-25T01:50:07;11.20;;;6.10;;
31347;SDS011;21711;49.708;18.568;2023-04-25T01:52:36;11.50;;;6.97;;
31347;SDS011;21711;49.708;18.568;2023-04-25T01:55:04;8.77;;;5.43;;
31347;SDS011;21711;49.708;18.568;2023-04-25T01:57:34;9.95;;;6.60;;
31347;SDS011;21711;49.708;18.568;2023-04-25T02:00:03;15.30;;;6.95;;
31347;SDS011;21711;49.708;18.568;2023-04-25T02:02:39;12.10;;;6.10;;
31347;SDS011;21711;49.708;18.568;2023-04-25T02:05:22;12.77;;;6.40;;
31347;SDS011;21711;49.708;18.568;2023-04-25T02:07:50;10.68;;;6.53;;
31347;SDS011;21711;49.708;18.568;2023-04-25T02:10:18;11.23;;;6.85;;
31347;SDS011;21711;49.708;18.568;2023-04-25T02:13:06;11.63;;;7.15;;
31347;SDS011;21711;49.708;18.568;2023-04-25T02:15:53;9.50;;;5.93;;
31347;SDS011;21711;49.708;18.568;2023-04-25T02:18:20;8.93;;;6.05;;
31347;SDS011;21711;49.708;18.568;2023-04-25T02:20:48;12.25;;;6.75;;
31347;SDS011;21711;49.708;18.568;2023-04-25T02:23:16;12.00;;;6.57;;
31347;SDS011;21711;49.708;18.568;2023-04-25T02:25:45;10.80;;;6.15;;
31347;SDS011;21711;49.708;18.568;2023-04-25T02:28:13;11.75;;;6.70;;
31347;SDS011;21711;49.708;18.568;2023-04-25T02:30:40;12.07;;;7.47;;
31347;SDS011;21711;49.708;18.568;2023-04-25T02:33:07;12.40;;;6.38;;
31347;SDS011;21711;49.708;18.568;2023-04-25T02:35:35;13.45;;;8.00;;
31347;SDS011;21711;49.708;18.568;2023-04-25T02:38:02;9.65;;;6.03;;
31347;SDS011;21711;49.708;18.568;2023-04-25T02:40:32;14.45;;;7.35;;
31347;SDS011;21711;49.708;18.568;2023-04-25T02:42:59;12.70;;;6.50;;
31347;SDS011;21711;49.708;18.568;2023-04-25T02:45:26;13.27;;;6.85;;
31347;SDS011;21711;49.708;18.568;2023-04-25T02:47:54;9.35;;;5.95;;
31347;SDS011;21711;49.708;18.568;2023-04-25T02:50:22;12.02;;;6.63;;
31347;SDS011;21711;49.708;18.568;2023-04-25T02:52:49;10.10;;;5.90;;
31347;SDS011;21711;49.708;18.568;2023-04-25T02:55:22;8.50;;;5.38;;
31347;SDS011;21711;49.708;18.568;2023-04-25T02:57:52;10.85;;;5.82;;
31347;SDS011;21711;49.708;18.568;2023-04-25T03:00:34;11.13;;;5.82;;
31347;SDS011;21711;49.708;18.568;2023-04-25T03:03:01;8.23;;;4.72;;
31347;SDS011;21711;49.708;18.568;2023-04-25T03:05:29;12.68;;;5.28;;
31347;SDS011;21711;49.708;18.568;2023-04-25T03:07:57;10.38;;;5.45;;
31347;SDS011;21711;49.708;18.568;2023-04-25T03:10:25;7.50;;;5.05;;
31347;SDS011;21711;49.708;18.568;2023-04-25T03:12:55;8.85;;;4.78;;
31347;SDS011;21711;49.708;18.568;2023-04-25T03:15:22;8.77;;;4.75;;
31347;SDS011;21711;49.708;18.568;2023-04-25T03:17:51;10.05;;;5.47;;
31347;SDS011;21711;49.708;18.568;2023-04-25T03:20:18;6.85;;;4.47;;
31347;SDS011;21711;49.708;18.568;2023-04-25T03:22:46;6.47;;;4.40;;
31347;SDS011;21711;49.708;18.568;2023-04-25T03:25:13;7.68;;;4.97;;
31347;SDS011;21711;49.708;18.568;2023-04-25T03:27:41;7.43;;;4.32;;
31347;SDS011;21711;49.708;18.568;2023-04-25T03:30:09;8.82;;;4.97;;
31347;SDS011;21711;49.708;18.568;2023-04-25T03:32:38;11.23;;;4.55;;
31347;SDS011;21711;49.708;18.568;2023-04-25T03:35:06;12.02;;;5.18;;
31347;SDS011;21711;49.708;18.568;2023-04-25T03:37:34;7.22;;;4.63;;
31347;SDS011;21711;49.708;18.568;2023-04-25T03:40:01;7.32;;;4.85;;
31347;SDS011;21711;49.708;18.568;2023-04-25T03:42:49;8.23;;;4.95;;
31347;SDS011;21711;49.708;18.568;2023-04-25T03:45:17;7.93;;;4.57;;
31347;SDS011;21711;49.708;18.568;2023-04-25T03:47:44;7.32;;;4.65;;
31347;SDS011;21711;49.708;18.568;2023-04-25T03:50:12;8.68;;;5.18;;
31347;SDS011;21711;49.708;18.568;2023-04-25T03:52:39;9.57;;;5.78;;
31347;SDS011;21711;49.708;18.568;2023-04-25T03:55:07;9.63;;;4.60;;
31347;SDS011;21711;49.708;18.568;2023-04-25T03:57:36;9.93;;;5.18;;
31347;SDS011;21711;49.708;18.568;2023-04-25T04:00:03;8.60;;;5.85;;
31347;SDS011;21711;49.708;18.568;2023-04-25T04:02:38;9.05;;;5.55;;
31347;SDS011;21711;49.708;18.568;2023-04-25T04:05:09;10.38;;;5.50;;
31347;SDS011;21711;49.708;18.568;2023-04-25T04:07:44;8.30;;;5.13;;
31347;SDS011;21711;49.708;18.568;2023-04-25T04:10:12;12.45;;;5.22;;
31347;SDS011;21711;49.708;18.568;2023-04-25T04:12:40;8.73;;;4.97;;
31347;SDS011;21711;49.708;18.568;2023-04-25T04:15:07;9.20;;;4.50;;
31347;SDS011;21711;49.708;18.568;2023-04-25T04:17:36;9.55;;;5.20;;
31347;SDS011;21711;49.708;18.568;2023-04-25T04:20:04;7.28;;;4.53;;
31347;SDS011;21711;49.708;18.568;2023-04-25T04:22:34;11.00;;;5.03;;
31347;SDS011;21711;49.708;18.568;2023-04-25T04:25:07;8.98;;;5.38;;
31347;SDS011;21711;49.708;18.568;2023-04-25T04:28:09;7.32;;;4.53;;
31347;SDS011;21711;49.708;18.568;2023-04-25T04:31:03;8.20;;;4.53;;
31347;SDS011;21711;49.708;18.568;2023-04-25T04:33:31;6.30;;;3.97;;
31347;SDS011;21711;49.708;18.568;2023-04-25T04:36:02;7.47;;;4.78;;
31347;SDS011;21711;49.708;18.568;2023-04-25T04:38:31;7.15;;;4.72;;
31347;SDS011;21711;49.708;18.568;2023-04-25T04:43:44;7.25;;;4.53;;
31347;SDS011;21711;49.708;18.568;2023-04-25T04:46:41;11.82;;;4.30;;
31347;SDS011;21711;49.708;18.568;2023-04-25T04:49:12;7.63;;;4.82;;
31347;SDS011;21711;49.708;18.568;2023-04-25T04:52:03;9.35;;;4.32;;
31347;SDS011;21711;49.708;18.568;2023-04-25T04:54:50;7.03;;;4.10;;
31347;SDS011;21711;49.708;18.568;2023-04-25T04:57:53;6.40;;;3.80;;
31347;SDS011;21711;49.708;18.568;2023-04-25T05:00:40;6.65;;;3.95;;
31347;SDS011;21711;49.708;18.568;2023-04-25T05:03:36;10.93;;;5.05;;
31347;SDS011;21711;49.708;18.568;2023-04-25T05:06:21;7.68;;;4.15;;
31347;SDS011;21711;49.708;18.568;2023-04-25T05:09:12;6.57;;;4.15;;
31347;SDS011;21711;49.708;18.568;2023-04-25T05:11:53;6.97;;;4.10;;
31347;SDS011;21711;49.708;18.568;2023-04-25T05:14:49;8.10;;;4.78;;
31347;SDS011;21711;49.708;18.568;2023-04-25T05:17:35;7.65;;;4.45;;
31347;SDS011;21711;49.708;18.568;2023-04-25T05:20:21;6.93;;;4.63;;
31347;SDS011;21711;49.708;18.568;2023-04-25T05:23:01;8.23;;;4.07;;
31347;SDS011;21711;49.708;18.568;2023-04-25T05:25:51;7.82;;;4.57;;
31347;SDS011;21711;49.708;18.568;2023-04-25T05:28:41;8.50;;;4.10;;
31347;SDS011;21711;49.708;18.568;2023-04-25T05:31:23;6.63;;;4.20;;
31347;SDS011;21711;49.708;18.568;2023-04-25T05:34:01;9.30;;;4.55;;
31347;SDS011;21711;49.708;18.568;2023-04-25T05:36:40;6.70;;;3.60;;
31347;SDS011;21711;49.708;18.568;2023-04-25T05:39:07;6.85;;;4.25;;
31347;SDS011;21711;49.708;18.568;2023-04-25T05:41:53;10.35;;;4.10;;
31347;SDS011;21711;49.708;18.568;2023-04-25T05:44:53;9.73;;;4.53;;
31347;SDS011;21711;49.708;18.568;2023-04-25T05:47:30;8.02;;;4.18;;
31347;SDS011;21711;49.708;18.568;2023-04-25T05:50:13;8.98;;;4.75;;
31347;SDS011;21711;49.708;18.568;2023-04-25T05:52:50;6.90;;;4.20;;
31347;SDS011;21711;49.708;18.568;2023-04-25T05:55:44;7.80;;;5.00;;
31347;SDS011;21711;49.708;18.568;2023-04-25T05:58:23;7.22;;;4.50;;
31347;SDS011;21711;49.708;18.568;2023-04-25T06:00:50;9.63;;;4.65;;
31347;SDS011;21711;49.708;18.568;2023-04-25T06:03:18;9.23;;;5.50;;
31347;SDS011;21711;49.708;18.568;2023-04-25T06:05:47;8.02;;;4.57;;
31347;SDS011;21711;49.708;18.568;2023-04-25T06:08:15;6.75;;;4.40;;
31347;SDS011;21711;49.708;18.568;2023-04-25T06:10:42;6.57;;;3.97;;
31347;SDS011;21711;49.708;18.568;2023-04-25T06:13:10;7.22;;;3.97;;
31347;SDS011;21711;49.708;18.568;2023-04-25T06:15:38;8.18;;;4.10;;
31347;SDS011;21711;49.708;18.568;2023-04-25T06:18:06;8.75;;;3.90;;
31347;SDS011;21711;49.708;18.568;2023-04-25T06:20:33;8.27;;;4.20;;
31347;SDS011;21711;49.708;18.568;2023-04-25T06:23:01;8.25;;;4.72;;
31347;SDS011;21711;49.708;18.568;2023-04-25T06:25:38;6.15;;;3.83;;
31347;SDS011;21711;49.708;18.568;2023-04-25T06:28:06;9.40;;;4.68;;
31347;SDS011;21711;49.708;18.568;2023-04-25T06:30:33;7.35;;;4.15;;
31347;SDS011;21711;49.708;18.568;2023-04-25T06:33:05;7.03;;;3.67;;
31347;SDS011;21711;49.708;18.568;2023-04-25T06:35:36;10.48;;;4.15;;
31347;SDS011;21711;49.708;18.568;2023-04-25T06:38:05;8.17;;;4.17;;
31347;SDS011;21711;49.708;18.568;2023-04-25T06:40:34;9.07;;;4.03;;
31347;SDS011;21711;49.708;18.568;2023-04-25T06:43:02;6.97;;;4.03;;
31347;SDS011;21711;49.708;18.568;2023-04-25T06:45:53;5.03;;;3.58;;
31347;SDS011;21711;49.708;18.568;2023-04-25T06:48:22;5.97;;;3.30;;
31347;SDS011;21711;49.708;18.568;2023-04-25T06:50:51;6.55;;;3.42;;
31347;SDS011;21711;49.708;18.568;2023-04-25T06:53:18;6.50;;;3.78;;
31347;SDS011;21711;49.708;18.568;2023-04-25T06:55:51;7.40;;;4.45;;
31347;SDS011;21711;49.708;18.568;2023-04-25T06:58:21;9.90;;;4.28;;
31347;SDS011;21711;49.708;18.568;2023-04-25T07:00:55;7.10;;;4.30;;
31347;SDS011;21711;49.708;18.568;2023-04-25T07:03:24;6.95;;;3.67;;
31347;SDS011;21711;49.708;18.568;2023-04-25T07:05:57;6.55;;;3.80;;
31347;SDS011;21711;49.708;18.568;2023-04-25T07:08:24;7.25;;;3.78;;
31347;SDS011;21711;49.708;18.568;2023-04-25T07:10:51;6.13;;;3.40;;
31347;SDS011;21711;49.708;18.568;2023-04-25T07:13:19;5.07;;;3.42;;
31347;SDS011;21711;49.708;18.568;2023-04-25T07:15:46;5.55;;;3.67;;
31347;SDS011;21711;49.708;18.568;2023-04-25T07:18:16;5.80;;;3.55;;
31347;SDS011;21711;49.708;18.568;2023-04-25T07:20:44;6.80;;;3.28;;
31347;SDS011;21711;49.708;18.568;2023-04-25T07:23:11;5.78;;;3.58;;
31347;SDS011;21711;49.708;18.568;2023-04-25T07:25:39;9.00;;;4.22;;
31347;SDS011;21711;49.708;18.568;2023-04-25T07:28:07;5.70;;;3.67;;
31347;SDS011;21711;49.708;18.568;2023-04-25T07:30:35;5.30;;;3.63;;
31347;SDS011;21711;49.708;18.568;2023-04-25T07:33:03;6.10;;;3.95;;
31347;SDS011;21711;49.708;18.568;2023-04-25T07:35:31;7.60;;;4.18;;
31347;SDS011;21711;49.708;18.568;2023-04-25T07:37:58;11.05;;;3.92;;
31347;SDS011;21711;49.708;18.568;2023-04-25T07:40:25;4.32;;;2.88;;
31347;SDS011;21711;49.708;18.568;2023-04-25T07:43:01;4.50;;;3.30;;
31347;SDS011;21711;49.708;18.568;2023-04-25T07:45:36;4.22;;;3.20;;
31347;SDS011;21711;49.708;18.568;2023-04-25T07:48:04;4.32;;;3.20;;
31347;SDS011;21711;49.708;18.568;2023-04-25T07:50:35;4.13;;;3.10;;
31347;SDS011;21711;49.708;18.568;2023-04-25T07:53:03;8.10;;;3.40;;
31347;SDS011;21711;49.708;18.568;2023-04-25T07:55:35;4.40;;;2.72;;
31347;SDS011;21711;49.708;18.568;2023-04-25T07:58:14;8.23;;;3.00;;
31347;SDS011;21711;49.708;18.568;2023-04-25T08:00:44;5.80;;;2.90;;
31347;SDS011;21711;49.708;18.568;2023-04-25T08:03:26;3.63;;;3.05;;
31347;SDS011;21711;49.708;18.568;2023-04-25T08:05:55;4.38;;;2.97;;
31347;SDS011;21711;49.708;18.568;2023-04-25T08:08:24;7.22;;;3.10;;
31347;SDS011;21711;49.708;18.568;2023-04-25T08:10:52;5.97;;;2.75;;
31347;SDS011;21711;49.708;18.568;2023-04-25T08:13:20;5.88;;;2.70;;
31347;SDS011;21711;49.708;18.568;2023-04-25T08:15:47;4.32;;;2.47;;
31347;SDS011;21711;49.708;18.568;2023-04-25T08:18:15;5.25;;;3.20;;
31347;SDS011;21711;49.708;18.568;2023-04-25T08:20:44;4.97;;;3.13;;
31347;SDS011;21711;49.708;18.568;2023-04-25T08:23:13;6.80;;;3.08;;
31347;SDS011;21711;49.708;18.568;2023-04-25T08:26:04;5.25;;;2.88;;
31347;SDS011;21711;49.708;18.568;2023-04-25T08:28:34;6.65;;;3.42;;
31347;SDS011;21711;49.708;18.568;2023-04-25T08:31:02;4.28;;;2.45;;
31347;SDS011;21711;49.708;18.568;2023-04-25T08:33:38;3.95;;;2.60;;
31347;SDS011;21711;49.708;18.568;2023-04-25T08:36:26;5.07;;;3.10;;
31347;SDS011;21711;49.708;18.568;2023-04-25T08:39:16;4.07;;;2.78;;
31347;SDS011;21711;49.708;18.568;2023-04-25T08:42:00;3.33;;;2.30;;
31347;SDS011;21711;49.708;18.568;2023-04-25T08:44:30;3.83;;;2.72;;
31347;SDS011;21711;49.708;18.568;2023-04-25T08:47:02;4.55;;;2.50;;
31347;SDS011;21711;49.708;18.568;2023-04-25T08:49:35;3.90;;;2.53;;
31347;SDS011;21711;49.708;18.568;2023-04-25T08:52:04;3.00;;;2.10;;
31347;SDS011;21711;49.708;18.568;2023-04-25T08:54:34;4.80;;;2.55;;
31347;SDS011;21711;49.708;18.568;2023-04-25T08:57:05;3.28;;;2.15;;
31347;SDS011;21711;49.708;18.568;2023-04-25T08:59:34;4.53;;;2.65;;
31347;SDS011;21711;49.708;18.568;2023-04-25T09:02:05;4.28;;;2.42;;
31347;SDS011;21711;49.708;18.568;2023-04-25T09:04:33;4.45;;;2.40;;
31347;SDS011;21711;49.708;18.568;2023-04-25T09:07:00;3.75;;;2.42;;
31347;SDS011;21711;49.708;18.568;2023-04-25T09:09:29;4.85;;;2.60;;
31347;SDS011;21711;49.708;18.568;2023-04-25T09:11:56;2.90;;;1.80;;
31347;SDS011;21711;49.708;18.568;2023-04-25T09:14:24;2.65;;;1.75;;
31347;SDS011;21711;49.708;18.568;2023-04-25T09:17:00;5.25;;;2.30;;
31347;SDS011;21711;49.708;18.568;2023-04-25T09:19:40;5.40;;;2.55;;
31347;SDS011;21711;49.708;18.568;2023-04-25T09:22:29;2.92;;;2.40;;
31347;SDS011;21711;49.708;18.568;2023-04-25T09:24:57;4.28;;;2.42;;
31347;SDS011;21711;49.708;18.568;2023-04-25T09:27:28;4.30;;;1.70;;
31347;SDS011;21711;49.708;18.568;2023-04-25T09:30:03;4.03;;;2.03;;
31347;SDS011;21711;49.708;18.568;2023-04-25T09:32:47;2.83;;;2.20;;
31347;SDS011;21711;49.708;18.568;2023-04-25T09:35:23;4.30;;;2.20;;
31347;SDS011;21711;49.708;18.568;2023-04-25T09:37:57;3.60;;;1.88;;
31347;SDS011;21711;49.708;18.568;2023-04-25T09:40:54;2.63;;;1.48;;
31347;SDS011;21711;49.708;18.568;2023-04-25T09:43:34;2.43;;;1.57;;
31347;SDS011;21711;49.708;18.568;2023-04-25T09:46:01;2.60;;;1.80;;
31347;SDS011;21711;49.708;18.568;2023-04-25T09:48:34;4.88;;;2.53;;
31347;SDS011;21711;49.708;18.568;2023-04-25T09:53:45;7.05;;;2.00;;
31347;SDS011;21711;49.708;18.568;2023-04-25T09:56:30;3.35;;;2.15;;
31347;SDS011;21711;49.708;18.568;2023-04-25T09:59:05;4.97;;;1.85;;
31347;SDS011;21711;49.708;18.568;2023-04-25T10:04:12;3.63;;;1.88;;
31347;SDS011;21711;49.708;18.568;2023-04-25T10:06:56;3.60;;;1.90;;
31347;SDS011;21711;49.708;18.568;2023-04-25T10:09:25;3.72;;;1.80;;
31347;SDS011;21711;49.708;18.568;2023-04-25T10:11:58;7.18;;;1.70;;
31347;SDS011;21711;49.708;18.568;2023-04-25T10:14:26;4.22;;;1.80;;
31347;SDS011;21711;49.708;18.568;2023-04-25T10:16:55;6.57;;;1.75;;
31347;SDS011;21711;49.708;18.568;2023-04-25T10:19:25;4.13;;;2.30;;
31347;SDS011;21711;49.708;18.568;2023-04-25T10:21:55;3.05;;;1.98;;
31347;SDS011;21711;49.708;18.568;2023-04-25T10:24:36;3.45;;;2.25;;
31347;SDS011;21711;49.708;18.568;2023-04-25T10:27:06;3.47;;;1.90;;
31347;SDS011;21711;49.708;18.568;2023-04-25T10:29:34;2.40;;;1.73;;
31347;SDS011;21711;49.708;18.568;2023-04-25T10:32:02;4.35;;;2.17;;
31347;SDS011;21711;49.708;18.568;2023-04-25T10:34:42;3.75;;;2.03;;
31347;SDS011;21711;49.708;18.568;2023-04-25T10:37:13;3.20;;;2.30;;
31347;SDS011;21711;49.708;18.568;2023-04-25T10:39:41;4.57;;;2.08;;
31347;SDS011;21711;49.708;18.568;2023-04-25T10:42:10;6.53;;;3.28;;
31347;SDS011;21711;49.708;18.568;2023-04-25T10:44:38;10.60;;;3.05;;
31347;SDS011;21711;49.708;18.568;2023-04-25T10:47:06;3.80;;;1.98;;
31347;SDS011;21711;49.708;18.568;2023-04-25T10:49:42;5.45;;;2.42;;
31347;SDS011;21711;49.708;18.568;2023-04-25T10:52:24;7.65;;;2.78;;
31347;SDS011;21711;49.708;18.568;2023-04-25T10:54:55;4.25;;;2.58;;
31347;SDS011;21711;49.708;18.568;2023-04-25T10:57:25;4.78;;;1.95;;
31347;SDS011;21711;49.708;18.568;2023-04-25T11:00:16;3.40;;;1.92;;
31347;SDS011;21711;49.708;18.568;2023-04-25T11:02:52;5.78;;;2.03;;
31347;SDS011;21711;49.708;18.568;2023-04-25T11:08:24;3.72;;;2.50;;
31347;SDS011;21711;49.708;18.568;2023-04-25T11:11:15;4.15;;;2.30;;
31347;SDS011;21711;49.708;18.568;2023-04-25T11:13:49;4.35;;;2.40;;
31347;SDS011;21711;49.708;18.568;2023-04-25T11:16:17;4.00;;;1.88;;
31347;SDS011;21711;49.708;18.568;2023-04-25T11:18:53;4.35;;;2.70;;
31347;SDS011;21711;49.708;18.568;2023-04-25T11:21:27;4.38;;;2.33;;
31347;SDS011;21711;49.708;18.568;2023-04-25T11:23:56;5.03;;;2.67;;
31347;SDS011;21711;49.708;18.568;2023-04-25T11:26:24;18.45;;;3.65;;
31347;SDS011;21711;49.708;18.568;2023-04-25T11:28:55;3.63;;;2.58;;
31347;SDS011;21711;49.708;18.568;2023-04-25T11:31:28;6.30;;;3.50;;
31347;SDS011;21711;49.708;18.568;2023-04-25T11:33:56;10.02;;;3.03;;
31347;SDS011;21711;49.708;18.568;2023-04-25T11:36:24;4.38;;;2.50;;
31347;SDS011;21711;49.708;18.568;2023-04-25T11:38:53;3.38;;;2.00;;
31347;SDS011;21711;49.708;18.568;2023-04-25T11:41:21;8.75;;;2.38;;
31347;SDS011;21711;49.708;18.568;2023-04-25T11:43:48;4.95;;;2.53;;
31347;SDS011;21711;49.708;18.568;2023-04-25T11:46:18;4.00;;;2.20;;
31347;SDS011;21711;49.708;18.568;2023-04-25T11:48:46;6.35;;;1.90;;
31347;SDS011;21711;49.708;18.568;2023-04-25T11:51:14;7.00;;;2.47;;
31347;SDS011;21711;49.708;18.568;2023-04-25T11:53:42;3.25;;;2.10;;
31347;SDS011;21711;49.708;18.568;2023-04-25T11:56:11;3.45;;;2.65;;
31347;SDS011;21711;49.708;18.568;2023-04-25T12:01:49;2.75;;;2.35;;
31347;SDS011;21711;49.708;18.568;2023-04-25T12:04:23;7.38;;;2.20;;
31347;SDS011;21711;49.708;18.568;2023-04-25T12:06:52;6.45;;;2.50;;
31347;SDS011;21711;49.708;18.568;2023-04-25T12:09:28;3.67;;;2.57;;
31347;SDS011;21711;49.708;18.568;2023-04-25T12:11:58;8.52;;;2.40;;
31347;SDS011;21711;49.708;18.568;2023-04-25T12:14:31;3.25;;;2.13;;
31347;SDS011;21711;49.708;18.568;2023-04-25T12:17:02;6.65;;;2.40;;
31347;SDS011;21711;49.708;18.568;2023-04-25T12:19:35;5.25;;;2.67;;
31347;SDS011;21711;49.708;18.568;2023-04-25T12:22:20;7.80;;;3.03;;
31347;SDS011;21711;49.708;18.568;2023-04-25T12:24:49;6.90;;;3.58;;
31347;SDS011;21711;49.708;18.568;2023-04-25T12:27:20;3.58;;;2.53;;
31347;SDS011;21711;49.708;18.568;2023-04-25T12:29:51;4.70;;;2.45;;
31347;SDS011;21711;49.708;18.568;2023-04-25T12:32:22;4.38;;;3.00;;
31347;SDS011;21711;49.708;18.568;2023-04-25T12:34:51;5.38;;;2.90;;
31347;SDS011;21711;49.708;18.568;2023-04-25T12:37:18;7.57;;;3.20;;
31347;SDS011;21711;49.708;18.568;2023-04-25T12:39:46;5.22;;;2.83;;
31347;SDS011;21711;49.708;18.568;2023-04-25T12:42:13;7.32;;;3.10;;
31347;SDS011;21711;49.708;18.568;2023-04-25T12:44:40;5.65;;;2.90;;
31347;SDS011;21711;49.708;18.568;2023-04-25T12:47:08;5.82;;;3.00;;
31347;SDS011;21711;49.708;18.568;2023-04-25T12:49:36;5.35;;;2.95;;
31347;SDS011;21711;49.708;18.568;2023-04-25T12:52:03;6.07;;;3.42;;
31347;SDS011;21711;49.708;18.568;2023-04-25T12:54:30;6.30;;;2.95;;
31347;SDS011;21711;49.708;18.568;2023-04-25T12:56:58;7.90;;;2.53;;
31347;SDS011;21711;49.708;18.568;2023-04-25T12:59:25;5.88;;;2.90;;
31347;SDS011;21711;49.708;18.568;2023-04-25T13:01:53;5.95;;;3.50;;
31347;SDS011;21711;49.708;18.568;2023-04-25T13:04:20;5.70;;;3.10;;
31347;SDS011;21711;49.708;18.568;2023-04-25T13:06:48;5.63;;;2.80;;
31347;SDS011;21711;49.708;18.568;2023-04-25T13:09:15;3.85;;;2.60;;
31347;SDS011;21711;49.708;18.568;2023-04-25T13:11:42;5.25;;;3.20;;
31347;SDS011;21711;49.708;18.568;2023-04-25T13:14:10;4.97;;;2.80;;
31347;SDS011;21711;49.708;18.568;2023-04-25T13:16:37;6.40;;;3.42;;
31347;SDS011;21711;49.708;18.568;2023-04-25T13:19:04;6.72;;;3.00;;
31347;SDS011;21711;49.708;18.568;2023-04-25T13:21:34;6.27;;;3.30;;
31347;SDS011;21711;49.708;18.568;2023-04-25T13:24:01;8.07;;;3.75;;
31347;SDS011;21711;49.708;18.568;2023-04-25T13:26:28;5.22;;;2.95;;
31347;SDS011;21711;49.708;18.568;2023-04-25T13:28:56;3.78;;;2.97;;
31347;SDS011;21711;49.708;18.568;2023-04-25T13:31:23;7.75;;;3.90;;
31347;SDS011;21711;49.708;18.568;2023-04-25T13:33:51;7.38;;;3.10;;
31347;SDS011;21711;49.708;18.568;2023-04-25T13:36:18;9.52;;;3.30;;
31347;SDS011;21711;49.708;18.568;2023-04-25T13:38:46;4.10;;;2.65;;
31347;SDS011;21711;49.708;18.568;2023-04-25T13:41:15;4.88;;;2.78;;
31347;SDS011;21711;49.708;18.568;2023-04-25T13:43:46;5.47;;;2.70;;
31347;SDS011;21711;49.708;18.568;2023-04-25T13:46:14;5.20;;;3.03;;
31347;SDS011;21711;49.708;18.568;2023-04-25T13:49:02;5.43;;;2.88;;
31347;SDS011;21711;49.708;18.568;2023-04-25T13:51:38;3.70;;;2.33;;
31347;SDS011;21711;49.708;18.568;2023-04-25T13:54:06;4.32;;;2.85;;
31347;SDS011;21711;49.708;18.568;2023-04-25T13:56:34;5.43;;;2.83;;
31347;SDS011;21711;49.708;18.568;2023-04-25T13:59:01;5.25;;;3.00;;
31347;SDS011;21711;49.708;18.568;2023-04-25T14:01:29;7.63;;;3.45;;
31347;SDS011;21711;49.708;18.568;2023-04-25T14:04:03;3.92;;;2.85;;
31347;SDS011;21711;49.708;18.568;2023-04-25T14:08:59;3.63;;;2.60;;
31347;SDS011;21711;49.708;18.568;2023-04-25T14:11:31;5.10;;;2.80;;
31347;SDS011;21711;49.708;18.568;2023-04-25T14:13:58;6.45;;;2.63;;
31347;SDS011;21711;49.708;18.568;2023-04-25T14:16:25;2.90;;;2.13;;
31347;SDS011;21711;49.708;18.568;2023-04-25T14:18:52;4.13;;;2.63;;
31347;SDS011;21711;49.708;18.568;2023-04-25T14:21:20;3.83;;;2.75;;
31347;SDS011;21711;49.708;18.568;2023-04-25T14:23:48;5.63;;;2.97;;
31347;SDS011;21711;49.708;18.568;2023-04-25T14:26:16;4.97;;;2.33;;
31347;SDS011;21711;49.708;18.568;2023-04-25T14:28:43;5.20;;;2.47;;
31347;SDS011;21711;49.708;18.568;2023-04-25T14:31:10;4.95;;;2.60;;
31347;SDS011;21711;49.708;18.568;2023-04-25T14:33:38;4.00;;;2.67;;
31347;SDS011;21711;49.708;18.568;2023-04-25T14:36:08;5.25;;;3.03;;
31347;SDS011;21711;49.708;18.568;2023-04-25T14:38:37;4.65;;;3.05;;
31347;SDS011;21711;49.708;18.568;2023-04-25T14:41:04;5.38;;;2.78;;
31347;SDS011;21711;49.708;18.568;2023-04-25T14:43:32;6.60;;;3.05;;
31347;SDS011;21711;49.708;18.568;2023-04-25T14:45:59;9.43;;;3.60;;
31347;SDS011;21711;49.708;18.568;2023-04-25T14:48:27;4.93;;;3.35;;
31347;SDS011;21711;49.708;18.568;2023-04-25T14:50:55;5.38;;;3.42;;
31347;SDS011;21711;49.708;18.568;2023-04-25T14:53:26;5.60;;;3.20;;
31347;SDS011;21711;49.708;18.568;2023-04-25T14:55:54;5.57;;;3.17;;
31347;SDS011;21711;49.708;18.568;2023-04-25T14:58:21;10.60;;;3.78;;
31347;SDS011;21711;49.708;18.568;2023-04-25T15:00:49;7.47;;;3.38;;
31347;SDS011;21711;49.708;18.568;2023-04-25T15:03:17;6.75;;;3.42;;
31347;SDS011;21711;49.708;18.568;2023-04-25T15:05:45;8.75;;;3.47;;
31347;SDS011;21711;49.708;18.568;2023-04-25T15:08:12;9.45;;;4.55;;
31347;SDS011;21711;49.708;18.568;2023-04-25T15:10:39;5.95;;;3.17;;
31347;SDS011;21711;49.708;18.568;2023-04-25T15:13:07;6.10;;;3.35;;